SWA3700 KPBI-KMCO
Flight info
| Callsign | SWA3700 |
|---|---|
| Flight time | 0h 29m |
| Altitude | 14000 |
| Route | TBIRD7 CHEFS MUNGI1 |
| Aircraft | B738/M-SDE2E3FGHIRWXY/LB1 |
Departure
| Time | 2026-04-21 01:37 |
|---|---|
| Airport | Palm Beach International Airport (KPBI) |
Arrival
| Time | 2026-04-21 02:07 |
|---|---|
| Airport | Orlando International Airport (KMCO) |
| Time | Latitude | Longitude | Altitude | Speed | Heading |
|---|---|---|---|---|---|
| 2026-04-21 01:19 | 26.68597 | -80.09019 | 26 ft | 0 kts | 92° |
| 2026-04-21 01:30 | 26.68597 | -80.09037 | 30 ft | 2 kts | 92° |
| 2026-04-21 01:30 | 26.68598 | -80.09055 | 27 ft | 2 kts | 91° |
| 2026-04-21 01:30 | 26.68598 | -80.09073 | 28 ft | 2 kts | 102° |
| 2026-04-21 01:31 | 26.68605 | -80.09089 | 29 ft | 2 kts | 161° |
| 2026-04-21 01:31 | 26.68613 | -80.09091 | 31 ft | 1 kts | 182° |
| 2026-04-21 01:31 | 26.68614 | -80.09091 | 31 ft | 0 kts | 182° |
| 2026-04-21 01:32 | 26.68612 | -80.09091 | 31 ft | 1 kts | 182° |
| 2026-04-21 01:32 | 26.68589 | -80.09092 | 28 ft | 7 kts | 182° |
| 2026-04-21 01:32 | 26.68504 | -80.09096 | 25 ft | 15 kts | 182° |
| 2026-04-21 01:33 | 26.68415 | -80.09149 | 26 ft | 15 kts | 228° |
| 2026-04-21 01:33 | 26.68367 | -80.09247 | 25 ft | 14 kts | 260° |
| 2026-04-21 01:33 | 26.68367 | -80.09354 | 25 ft | 14 kts | 273° |
| 2026-04-21 01:33 | 26.68371 | -80.09458 | 27 ft | 13 kts | 273° |
| 2026-04-21 01:34 | 26.68377 | -80.09557 | 30 ft | 13 kts | 272° |
| 2026-04-21 01:34 | 26.68382 | -80.09655 | 32 ft | 12 kts | 274° |
| 2026-04-21 01:34 | 26.68385 | -80.09759 | 32 ft | 15 kts | 272° |
| 2026-04-21 01:34 | 26.68391 | -80.09885 | 32 ft | 17 kts | 273° |
| 2026-04-21 01:35 | 26.68396 | -80.10025 | 32 ft | 19 kts | 272° |
| 2026-04-21 01:35 | 26.68403 | -80.10180 | 31 ft | 21 kts | 273° |
| 2026-04-21 01:35 | 26.68412 | -80.10360 | 27 ft | 25 kts | 272° |
| 2026-04-21 01:35 | 26.68420 | -80.10566 | 23 ft | 28 kts | 272° |
| 2026-04-21 01:36 | 26.68428 | -80.10755 | 21 ft | 21 kts | 272° |
| 2026-04-21 01:36 | 26.68339 | -80.10814 | 21 ft | 18 kts | 148° |
| 2026-04-21 01:36 | 26.68315 | -80.10685 | 23 ft | 18 kts | 94° |
| 2026-04-21 01:36 | 26.68302 | -80.10358 | 27 ft | 73 kts | 92° |
| 2026-04-21 01:37 | 26.68267 | -80.09576 | 31 ft | 127 kts | 93° |
| 2026-04-21 01:37 | 26.68203 | -80.08434 | 129 ft | 159 kts | 88° |
| 2026-04-21 01:37 | 26.68122 | -80.07176 | 598 ft | 173 kts | 93° |
| 2026-04-21 01:37 | 26.68036 | -80.05737 | 914 ft | 193 kts | 87° |
| 2026-04-21 01:38 | 26.68236 | -80.04237 | 1125 ft | 206 kts | 67° |
| 2026-04-21 01:38 | 26.68938 | -80.02760 | 1518 ft | 228 kts | 56° |
| 2026-04-21 01:38 | 26.69849 | -80.01217 | 2165 ft | 240 kts | 56° |
| 2026-04-21 01:38 | 26.70752 | -79.99670 | 3236 ft | 238 kts | 56° |
| 2026-04-21 01:39 | 26.71825 | -79.98289 | 4262 ft | 235 kts | 39° |
| 2026-04-21 01:39 | 26.73226 | -79.97376 | 5156 ft | 238 kts | 19° |
| 2026-04-21 01:39 | 26.74869 | -79.97010 | 5967 ft | 244 kts | 11° |
| 2026-04-21 01:39 | 26.76589 | -79.96793 | 6701 ft | 254 kts | 359° |
| 2026-04-21 01:40 | 26.78302 | -79.97368 | 7395 ft | 265 kts | 330° |
| 2026-04-21 01:40 | 26.79654 | -79.98789 | 8292 ft | 269 kts | 307° |
| 2026-04-21 01:40 | 26.80449 | -80.00681 | 9281 ft | 270 kts | 292° |
| 2026-04-21 01:40 | 26.81056 | -80.02671 | 10186 ft | 270 kts | 290° |
| 2026-04-21 01:41 | 26.81667 | -80.04712 | 10585 ft | 289 kts | 291° |
| 2026-04-21 01:41 | 26.82341 | -80.06936 | 10783 ft | 313 kts | 292° |
| 2026-04-21 01:41 | 26.83025 | -80.09178 | 11272 ft | 323 kts | 291° |
| 2026-04-21 01:41 | 26.83757 | -80.11573 | 11963 ft | 327 kts | 291° |
| 2026-04-21 01:42 | 26.84470 | -80.13899 | 12696 ft | 328 kts | 291° |
| 2026-04-21 01:42 | 26.85242 | -80.16410 | 13459 ft | 332 kts | 291° |
| 2026-04-21 01:42 | 26.86005 | -80.18886 | 13913 ft | 343 kts | 290° |
| 2026-04-21 01:42 | 26.86777 | -80.21393 | 13946 ft | 346 kts | 290° |
| 2026-04-21 01:43 | 26.87559 | -80.23937 | 13959 ft | 345 kts | 290° |
| 2026-04-21 01:43 | 26.88340 | -80.26475 | 13963 ft | 344 kts | 290° |
| 2026-04-21 01:43 | 26.89119 | -80.29009 | 13965 ft | 344 kts | 290° |
| 2026-04-21 01:43 | 26.89900 | -80.31548 | 13964 ft | 344 kts | 290° |
| 2026-04-21 01:44 | 26.90726 | -80.34064 | 13958 ft | 344 kts | 297° |
| 2026-04-21 01:44 | 26.92146 | -80.36195 | 13979 ft | 342 kts | 316° |
| 2026-04-21 01:44 | 26.94100 | -80.37723 | 13962 ft | 344 kts | 333° |
| 2026-04-21 01:44 | 26.96312 | -80.38746 | 13968 ft | 345 kts | 338° |
| 2026-04-21 01:45 | 26.98568 | -80.39687 | 13967 ft | 346 kts | 338° |
| 2026-04-21 01:45 | 27.00832 | -80.40619 | 13961 ft | 346 kts | 338° |
| 2026-04-21 01:45 | 27.03092 | -80.41562 | 13966 ft | 346 kts | 338° |
| 2026-04-21 01:45 | 27.05355 | -80.42519 | 13967 ft | 346 kts | 338° |
| 2026-04-21 01:46 | 27.07579 | -80.43470 | 13968 ft | 347 kts | 338° |
| 2026-04-21 01:46 | 27.09829 | -80.44439 | 13966 ft | 346 kts | 338° |
| 2026-04-21 01:46 | 27.12083 | -80.45410 | 13970 ft | 346 kts | 338° |
| 2026-04-21 01:46 | 27.14339 | -80.46399 | 13971 ft | 346 kts | 334° |
| 2026-04-21 01:47 | 27.16333 | -80.47873 | 13951 ft | 344 kts | 315° |
| 2026-04-21 01:47 | 27.17897 | -80.49847 | 13942 ft | 343 kts | 310° |
| 2026-04-21 01:47 | 27.19405 | -80.51915 | 13931 ft | 342 kts | 309° |
| 2026-04-21 01:47 | 27.20901 | -80.53993 | 13923 ft | 341 kts | 309° |
| 2026-04-21 01:48 | 27.22395 | -80.56059 | 13924 ft | 341 kts | 309° |
| 2026-04-21 01:48 | 27.23895 | -80.58121 | 13931 ft | 340 kts | 309° |
| 2026-04-21 01:48 | 27.25398 | -80.60175 | 13936 ft | 340 kts | 309° |
| 2026-04-21 01:48 | 27.26907 | -80.62230 | 13936 ft | 341 kts | 309° |
| 2026-04-21 01:49 | 27.28417 | -80.64285 | 13943 ft | 341 kts | 309° |
| 2026-04-21 01:49 | 27.29934 | -80.66347 | 13946 ft | 342 kts | 309° |
| 2026-04-21 01:49 | 27.31448 | -80.68406 | 13945 ft | 342 kts | 309° |
| 2026-04-21 01:49 | 27.32948 | -80.70445 | 13943 ft | 343 kts | 309° |
| 2026-04-21 01:50 | 27.34468 | -80.72512 | 13941 ft | 343 kts | 309° |
| 2026-04-21 01:50 | 27.35989 | -80.74579 | 13945 ft | 343 kts | 311° |
| 2026-04-21 01:50 | 27.37782 | -80.76330 | 13940 ft | 344 kts | 329° |
| 2026-04-21 01:50 | 27.39952 | -80.77457 | 13945 ft | 345 kts | 337° |
| 2026-04-21 01:51 | 27.42202 | -80.78412 | 13945 ft | 345 kts | 338° |
| 2026-04-21 01:51 | 27.44450 | -80.79338 | 13946 ft | 345 kts | 338° |
| 2026-04-21 01:51 | 27.46593 | -80.80229 | 13945 ft | 345 kts | 338° |
| 2026-04-21 01:51 | 27.48841 | -80.81181 | 13946 ft | 345 kts | 338° |
| 2026-04-21 01:52 | 27.51092 | -80.82147 | 13945 ft | 345 kts | 338° |
| 2026-04-21 01:52 | 27.55574 | -80.84087 | 13952 ft | 345 kts | 337° |
| 2026-04-21 01:52 | 27.57796 | -80.85101 | 13952 ft | 344 kts | 335° |
| 2026-04-21 01:53 | 27.59947 | -80.86205 | 13959 ft | 344 kts | 334° |
| 2026-04-21 01:53 | 27.62111 | -80.87357 | 13958 ft | 344 kts | 333° |
| 2026-04-21 01:53 | 27.64279 | -80.88517 | 13956 ft | 344 kts | 333° |
| 2026-04-21 01:53 | 27.66442 | -80.89669 | 13957 ft | 344 kts | 333° |
| 2026-04-21 01:54 | 27.68609 | -80.90816 | 13955 ft | 344 kts | 334° |
| 2026-04-21 01:54 | 27.70774 | -80.91958 | 13950 ft | 344 kts | 334° |
| 2026-04-21 01:54 | 27.72830 | -80.93040 | 13954 ft | 344 kts | 334° |
| 2026-04-21 01:54 | 27.75000 | -80.94180 | 13956 ft | 344 kts | 334° |
| 2026-04-21 01:55 | 27.77176 | -80.95323 | 13958 ft | 344 kts | 334° |
| 2026-04-21 01:55 | 27.79349 | -80.96464 | 13970 ft | 344 kts | 333° |
| 2026-04-21 01:55 | 27.81520 | -80.97605 | 13966 ft | 344 kts | 333° |
| 2026-04-21 01:55 | 27.83692 | -80.98746 | 13959 ft | 344 kts | 333° |
| 2026-04-21 01:56 | 27.85864 | -80.99889 | 13962 ft | 344 kts | 333° |
| 2026-04-21 01:56 | 27.88032 | -81.01029 | 13961 ft | 344 kts | 333° |
| 2026-04-21 01:56 | 27.90199 | -81.02170 | 13961 ft | 343 kts | 333° |
| 2026-04-21 01:56 | 27.92361 | -81.03308 | 13964 ft | 343 kts | 333° |
| 2026-04-21 01:57 | 27.94509 | -81.04395 | 13961 ft | 343 kts | 336° |
| 2026-04-21 01:57 | 27.96735 | -81.05353 | 13900 ft | 331 kts | 338° |
| 2026-04-21 01:57 | 27.98826 | -81.06204 | 13779 ft | 314 kts | 338° |
| 2026-04-21 01:57 | 28.00822 | -81.07019 | 13640 ft | 297 kts | 338° |
| 2026-04-21 01:58 | 28.02706 | -81.07802 | 13537 ft | 281 kts | 338° |
| 2026-04-21 01:58 | 28.04424 | -81.08525 | 13216 ft | 275 kts | 338° |
| 2026-04-21 01:58 | 28.06216 | -81.09283 | 12729 ft | 274 kts | 338° |
| 2026-04-21 01:58 | 28.08003 | -81.10041 | 12237 ft | 274 kts | 339° |
| 2026-04-21 01:59 | 28.09781 | -81.10785 | 11868 ft | 268 kts | 339° |
| 2026-04-21 01:59 | 28.11517 | -81.11509 | 11322 ft | 265 kts | 339° |
| 2026-04-21 01:59 | 28.13245 | -81.12230 | 10641 ft | 265 kts | 340° |
| 2026-04-21 01:59 | 28.14977 | -81.12954 | 9946 ft | 264 kts | 339° |
| 2026-04-21 02:00 | 28.16523 | -81.14050 | 9142 ft | 266 kts | 314° |
| 2026-04-21 02:00 | 28.17595 | -81.15744 | 8493 ft | 264 kts | 302° |
| 2026-04-21 02:00 | 28.18478 | -81.17559 | 7852 ft | 262 kts | 300° |
| 2026-04-21 02:00 | 28.19281 | -81.19350 | 7382 ft | 248 kts | 299° |
| 2026-04-21 02:01 | 28.20022 | -81.21043 | 6883 ft | 235 kts | 298° |
| 2026-04-21 02:01 | 28.20709 | -81.22618 | 6697 ft | 211 kts | 300° |
| 2026-04-21 02:01 | 28.21361 | -81.24047 | 6281 ft | 201 kts | 302° |
| 2026-04-21 02:01 | 28.22046 | -81.25430 | 5623 ft | 202 kts | 305° |
| 2026-04-21 02:02 | 28.22792 | -81.26778 | 5146 ft | 195 kts | 309° |
| 2026-04-21 02:02 | 28.23698 | -81.27740 | 4844 ft | 169 kts | 345° |
| 2026-04-21 02:02 | 28.24817 | -81.27908 | 4369 ft | 158 kts | 0° |
| 2026-04-21 02:02 | 28.25904 | -81.28011 | 3833 ft | 158 kts | 3° |
| 2026-04-21 02:03 | 28.26992 | -81.28062 | 3363 ft | 154 kts | 6° |
| 2026-04-21 02:03 | 28.28061 | -81.28085 | 3102 ft | 155 kts | 7° |
| 2026-04-21 02:03 | 28.29133 | -81.28100 | 3054 ft | 152 kts | 6° |
| 2026-04-21 02:03 | 28.30196 | -81.28112 | 2954 ft | 151 kts | 6° |
| 2026-04-21 02:04 | 28.31219 | -81.28124 | 2668 ft | 142 kts | 7° |
| 2026-04-21 02:04 | 28.32206 | -81.28134 | 2227 ft | 140 kts | 7° |
| 2026-04-21 02:04 | 28.33164 | -81.28143 | 1866 ft | 136 kts | 7° |
| 2026-04-21 02:04 | 28.34099 | -81.28152 | 1697 ft | 138 kts | 6° |
| 2026-04-21 02:05 | 28.35067 | -81.28161 | 1474 ft | 140 kts | 5° |
| 2026-04-21 02:05 | 28.36024 | -81.28172 | 1295 ft | 139 kts | 6° |
| 2026-04-21 02:05 | 28.36995 | -81.28182 | 1110 ft | 138 kts | 5° |
| 2026-04-21 02:05 | 28.37951 | -81.28182 | 855 ft | 138 kts | 2° |
| 2026-04-21 02:06 | 28.38909 | -81.28184 | 657 ft | 138 kts | 1° |
| 2026-04-21 02:06 | 28.39872 | -81.28197 | 486 ft | 138 kts | 1° |
| 2026-04-21 02:06 | 28.40836 | -81.28221 | 319 ft | 139 kts | 360° |
| 2026-04-21 02:06 | 28.41785 | -81.28232 | 201 ft | 135 kts | 1° |
| 2026-04-21 02:07 | 28.42697 | -81.28236 | 104 ft | 118 kts | 0° |
| 2026-04-21 02:07 | 28.43307 | -81.28247 | 100 ft | 57 kts | 359° |
| 2026-04-21 02:07 | 28.43512 | -81.28249 | 100 ft | 15 kts | 358° |
| 2026-04-21 02:07 | 28.43642 | -81.28250 | 102 ft | 22 kts | 360° |
| 2026-04-21 02:08 | 28.43813 | -81.28282 | 106 ft | 27 kts | 332° |
| 2026-04-21 02:08 | 28.43876 | -81.28453 | 106 ft | 26 kts | 270° |
| 2026-04-21 02:08 | 28.43875 | -81.28661 | 106 ft | 27 kts | 269° |
| 2026-04-21 02:08 | 28.43873 | -81.28871 | 106 ft | 26 kts | 270° |
| 2026-04-21 02:09 | 28.43871 | -81.29068 | 105 ft | 25 kts | 269° |
| 2026-04-21 02:09 | 28.43850 | -81.29254 | 98 ft | 22 kts | 216° |
| 2026-04-21 02:09 | 28.43701 | -81.29262 | 101 ft | 21 kts | 179° |
| 2026-04-21 02:09 | 28.43563 | -81.29287 | 103 ft | 21 kts | 237° |
| 2026-04-21 02:10 | 28.43553 | -81.29446 | 105 ft | 20 kts | 270° |
| 2026-04-21 02:10 | 28.43552 | -81.29601 | 103 ft | 19 kts | 270° |
| 2026-04-21 02:10 | 28.43494 | -81.29710 | 103 ft | 19 kts | 186° |
| 2026-04-21 02:10 | 28.43410 | -81.29797 | 103 ft | 15 kts | 201° |
| 2026-04-21 02:11 | 28.43335 | -81.29855 | 99 ft | 14 kts | 247° |
| 2026-04-21 02:11 | 28.43298 | -81.29962 | 100 ft | 14 kts | 250° |
| 2026-04-21 02:11 | 28.43283 | -81.30068 | 100 ft | 14 kts | 278° |
| 2026-04-21 02:11 | 28.43322 | -81.30164 | 100 ft | 13 kts | 303° |
| 2026-04-21 02:12 | 28.43376 | -81.30198 | 100 ft | 3 kts | 16° |
| 2026-04-21 02:12 | 28.43400 | -81.30181 | 100 ft | 6 kts | 34° |
| 2026-04-21 02:12 | 28.43442 | -81.30149 | 100 ft | 6 kts | 34° |
| 2026-04-21 02:12 | 28.43448 | -81.30145 | 100 ft | 0 kts | 34° |